Time;durP1;ratioP1;P1;durP2;ratioP2;P2;SDS_P1;SDS_P2;PMS_P1;PMS_P2;Temp;Humidity;BMP_temperature;BMP_pressure;BME280_temperature;BME280_humidity;BME280_pressure;Samples;Min_cycle;Max_cycle;Signal;HPM_P1;HPM_P2
2021/11/30 00:00:09;;;;;;;;;34.50;33.25;;;;;4.93;58.59;101495.53;5062837;27;45514;-44
2021/11/30 00:02:35;;;;;;;;;27.75;23.50;;;;;4.93;58.72;101495.53;5076070;28;45631;-43
2021/11/30 00:05:01;;;;;;;;;26.75;25.00;;;;;4.93;58.68;101496.44;5062771;28;45336;-44
2021/11/30 00:07:26;;;;;;;;;28.00;25.75;;;;;4.94;58.50;101502.53;5061568;28;45323;-43
2021/11/30 00:12:20;;;;;;;;;24.25;22.75;;;;;4.95;58.92;101499.94;5062386;28;46117;-43
2021/11/30 00:14:48;;;;;;;;;25.00;24.75;;;;;4.95;59.11;101494.72;5062479;28;45261;-43
2021/11/30 00:17:15;;;;;;;;;24.00;22.50;;;;;4.94;58.68;101492.97;5062411;28;45228;-44
2021/11/30 00:19:42;;;;;;;;;23.75;21.50;;;;;4.99;58.78;101493.97;5062859;28;45484;-43
2021/11/30 00:22:09;;;;;;;;;28.25;26.50;;;;;5.00;58.65;101497.44;5062145;28;48343;-43
2021/11/30 00:24:35;;;;;;;;;26.50;25.25;;;;;4.98;58.67;101484.38;5045126;28;45373;-44
2021/11/30 00:27:01;;;;;;;;;25.25;23.50;;;;;5.02;58.88;101491.41;5058081;28;45286;-43
2021/11/30 00:29:27;;;;;;;;;25.00;22.25;;;;;5.03;58.73;101489.66;5062645;28;45481;-43
2021/11/30 00:31:53;;;;;;;;;29.50;26.00;;;;;5.03;58.67;101487.06;5062086;28;46275;-44
2021/11/30 00:34:19;;;;;;;;;23.75;22.50;;;;;5.02;58.83;101494.00;5062366;28;45285;-46
2021/11/30 00:36:44;;;;;;;;;24.25;23.00;;;;;4.98;58.85;101483.50;5062338;28;45252;-44
2021/11/30 00:39:10;;;;;;;;;25.25;22.25;;;;;4.99;58.89;101480.94;5062181;28;45145;-45
2021/11/30 00:41:36;;;;;;;;;26.00;22.50;;;;;5.01;59.13;101483.56;5061925;28;46230;-43
2021/11/30 00:44:01;;;;;;;;;26.00;24.00;;;;;5.00;59.10;101482.69;5062165;28;45405;-44
2021/11/30 00:46:39;;;;;;;;;26.75;23.50;;;;;5.00;59.04;101481.81;5061905;28;45470;-44
2021/11/30 00:49:06;;;;;;;;;21.75;21.75;;;;;5.00;59.17;101468.78;5062088;28;45470;-44
2021/11/30 00:51:35;;;;;;;;;29.25;27.50;;;;;4.98;59.19;101475.69;5059898;28;48341;-43
2021/11/30 00:54:03;;;;;;;;;24.00;22.75;;;;;5.00;59.26;101460.97;5061725;28;45382;-43
2021/11/30 00:56:28;;;;;;;;;27.75;23.75;;;;;5.00;59.15;101458.34;5061876;28;45315;-43
2021/11/30 00:58:54;;;;;;;;;24.25;20.25;;;;;4.97;59.41;101466.09;5060476;28;45607;-43
2021/11/30 01:01:20;;;;;;;;;26.75;24.75;;;;;4.99;59.33;101474.84;5061401;28;45468;-43
2021/11/30 01:03:45;;;;;;;;;26.75;22.25;;;;;4.98;59.23;101480.88;5061568;28;45501;-43
2021/11/30 01:06:11;;;;;;;;;27.25;23.00;;;;;4.97;59.72;101476.50;5061501;28;45357;-46
2021/11/30 01:08:36;;;;;;;;;20.25;16.00;;;;;4.95;59.91;101473.88;5061545;28;45223;-43
2021/11/30 01:11:03;;;;;;;;;23.00;20.25;;;;;4.98;59.54;101467.84;5061377;28;45231;-44
2021/11/30 01:13:32;;;;;;;;;17.50;17.25;;;;;4.96;59.79;101457.41;5061681;28;45271;-44
2021/11/30 01:15:58;;;;;;;;;20.00;18.25;;;;;4.98;59.82;101457.44;5048660;28;45312;-43
2021/11/30 01:18:23;;;;;;;;;21.00;19.25;;;;;4.97;59.81;101445.25;5061313;28;45440;-43
2021/11/30 01:20:49;;;;;;;;;17.50;17.50;;;;;4.97;60.04;101450.47;5061118;28;45482;-42
2021/11/30 01:23:14;;;;;;;;;14.00;12.50;;;;;4.94;60.27;101442.59;5061447;28;45314;-43
2021/11/30 01:25:40;;;;;;;;;17.00;17.00;;;;;4.97;59.92;101453.97;5058588;28;45455;-44
2021/11/30 01:28:06;;;;;;;;;18.00;17.25;;;;;4.98;60.18;101452.22;5080562;28;45240;-43
2021/11/30 01:30:32;;;;;;;;;19.50;14.50;;;;;4.99;60.40;101448.78;5062971;27;45410;-44
2021/11/30 01:32:57;;;;;;;;;21.00;17.75;;;;;5.00;60.10;101446.19;5059913;28;45403;-43
2021/11/30 01:35:23;;;;;;;;;18.50;17.00;;;;;5.00;60.51;101456.63;5061273;28;45366;-44
2021/11/30 01:37:49;;;;;;;;;22.50;18.75;;;;;5.02;60.35;101451.47;5061317;28;45441;-43
2021/11/30 01:40:19;;;;;;;;;12.50;12.50;;;;;5.02;60.54;101448.88;5060968;28;45339;-43
2021/11/30 01:42:47;;;;;;;;;18.75;14.25;;;;;4.99;60.78;101431.44;5061314;28;45326;-43
2021/11/30 01:50:54;;;;;;;;;20.75;17.00;;;;;5.09;60.44;101448.13;5060789;28;45337;-43
2021/11/30 01:53:20;;;;;;;;;17.75;12.00;;;;;5.09;60.59;101445.50;5047435;28;45283;-43
2021/11/30 01:55:46;;;;;;;;;18.50;17.00;;;;;5.12;60.72;101440.38;5060992;28;45407;-43
2021/11/30 01:58:13;;;;;;;;;20.25;17.75;;;;;5.12;60.62;101431.66;5047921;28;45374;-45
2021/11/30 02:00:40;;;;;;;;;20.75;18.75;;;;;5.10;60.87;101426.41;5060844;28;46606;-43
2021/11/30 02:03:06;;;;;;;;;18.25;16.75;;;;;5.15;60.89;101427.38;5059654;28;45340;-43
2021/11/30 02:05:37;;;;;;;;;18.25;15.25;;;;;5.17;60.87;101425.69;5060874;28;45288;-43
2021/11/30 02:08:04;;;;;;;;;17.50;15.75;;;;;5.14;60.94;101428.22;5060466;28;45390;-45
2021/11/30 02:10:32;;;;;;;;;18.25;17.75;;;;;5.16;61.16;101421.34;5024417;28;47468;-43
2021/11/30 02:12:58;;;;;;;;;19.50;17.00;;;;;5.19;61.21;101410.09;5070230;28;45240;-47
2021/11/30 02:15:26;;;;;;;;;14.75;12.50;;;;;5.19;61.18;101429.22;5060683;28;45300;-43
2021/11/30 02:17:57;;;;;;;;;17.25;17.25;;;;;5.21;61.21;101400.59;5060472;28;45381;-45
2021/11/30 02:20:22;;;;;;;;;17.00;14.00;;;;;5.22;61.02;101391.91;5059942;28;45609;-44
2021/11/30 02:22:53;;;;;;;;;18.75;12.00;;;;;5.23;60.81;101388.44;5072659;27;45304;-50
2021/11/30 02:25:20;;;;;;;;;14.00;14.00;;;;;5.30;61.11;101398.13;5075995;28;45276;-44
2021/11/30 02:27:45;;;;;;;;;13.50;13.00;;;;;5.31;60.86;101414.66;5060631;28;45244;-45
2021/11/30 02:30:10;;;;;;;;;13.75;13.75;;;;;5.29;61.16;101401.59;5060160;28;46295;-43
2021/11/30 02:32:36;;;;;;;;;15.25;14.00;;;;;5.32;61.15;101406.88;5060602;28;45181;-44
2021/11/30 02:35:01;;;;;;;;;18.25;15.50;;;;;5.35;61.10;101406.91;5062331;28;45694;-43
2021/11/30 02:37:29;;;;;;;;;13.75;9.00;;;;;5.36;61.04;101389.56;5072053;27;45232;-44
2021/11/30 02:39:55;;;;;;;;;16.00;16.00;;;;;5.37;61.18;101386.06;5059758;28;46179;-43
2021/11/30 02:42:20;;;;;;;;;16.75;14.75;;;;;5.38;60.92;101393.06;5059315;28;45405;-44
2021/11/30 02:44:46;;;;;;;;;14.75;14.25;;;;;5.37;61.54;101393.91;5058720;28;45498;-44
2021/11/30 02:47:13;;;;;;;;;18.75;15.00;;;;;5.40;61.21;101380.94;5058951;28;45630;-43
2021/11/30 02:49:41;;;;;;;;;18.50;11.75;;;;;5.45;60.94;101381.03;5060045;28;45333;-43
2021/11/30 02:52:13;;;;;;;;;15.50;14.00;;;;;5.41;61.40;101372.28;5060169;28;45324;-44
2021/11/30 02:54:42;;;;;;;;;15.50;13.00;;;;;5.45;61.25;101368.84;5058550;28;45494;-44
2021/11/30 02:57:10;;;;;;;;;14.75;14.75;;;;;5.49;61.26;101369.78;5060247;28;45177;-44
2021/11/30 02:59:40;;;;;;;;;14.50;14.00;;;;;5.49;61.27;101383.69;5059836;28;46138;-44
2021/11/30 03:02:16;;;;;;;;;17.75;14.00;;;;;5.51;61.38;101383.75;5058613;28;45380;-44
2021/11/30 03:04:45;;;;;;;;;19.25;14.25;;;;;5.49;61.16;101383.69;5060019;28;45220;-43
2021/11/30 03:07:14;;;;;;;;;18.00;16.25;;;;;5.52;61.21;101398.50;5059972;28;45328;-44
2021/11/30 03:09:40;;;;;;;;;15.50;12.00;;;;;5.56;61.19;101396.81;5070809;28;47083;-44
2021/11/30 03:12:07;;;;;;;;;19.00;16.00;;;;;5.51;61.50;101397.63;5059711;28;45310;-45
2021/11/30 03:14:33;;;;;;;;;19.50;15.25;;;;;5.52;61.39;101382.84;5059750;28;45379;-43
2021/11/30 03:16:58;;;;;;;;;14.00;13.75;;;;;5.57;61.33;101390.78;5059702;28;45426;-46
2021/11/30 03:19:26;;;;;;;;;18.50;14.00;;;;;5.61;61.26;101392.56;5058537;28;46143;-43
2021/11/30 03:21:52;;;;;;;;;20.75;17.75;;;;;5.61;61.38;101390.84;5059826;28;45260;-44
2021/11/30 03:24:18;;;;;;;;;18.75;14.25;;;;;5.60;61.26;101380.41;5056642;28;45284;-45
2021/11/30 03:26:43;;;;;;;;;15.25;14.25;;;;;5.62;61.65;101376.97;5053001;28;45310;-43
2021/11/30 03:29:08;;;;;;;;;14.25;13.50;;;;;5.61;61.23;101370.00;5059687;28;45285;-45
2021/11/30 03:31:47;;;;;;;;;13.25;12.25;;;;;5.61;61.37;101367.38;5059760;28;45327;-43
2021/11/30 03:34:19;;;;;;;;;16.50;14.75;;;;;5.61;61.14;101362.16;5047898;28;45320;-44
2021/11/30 03:36:47;;;;;;;;;15.25;14.00;;;;;5.64;61.37;101372.63;5059597;28;45318;-44
2021/11/30 03:39:16;;;;;;;;;18.50;16.75;;;;;5.66;61.28;101383.97;5059315;28;45193;-44
2021/11/30 03:41:42;;;;;;;;;14.75;13.50;;;;;5.62;61.63;101394.31;5072915;28;45394;-45
2021/11/30 03:44:08;;;;;;;;;17.50;14.75;;;;;5.64;61.45;101395.25;5059633;28;45378;-44
2021/11/30 03:46:34;;;;;;;;;14.50;13.50;;;;;5.64;61.58;101406.53;5056320;28;45472;-43
2021/11/30 03:49:02;;;;;;;;;18.50;15.25;;;;;5.65;61.39;101408.28;5058043;28;45511;-44
2021/11/30 03:51:27;;;;;;;;;17.75;17.50;;;;;5.67;61.26;101409.22;5054639;28;45244;-45
2021/11/30 03:53:53;;;;;;;;;13.00;13.00;;;;;5.69;61.53;101406.63;5049835;28;45549;-45
2021/11/30 03:56:18;;;;;;;;;15.50;14.00;;;;;5.75;61.47;101416.25;5059441;28;45448;-44
2021/11/30 03:58:43;;;;;;;;;20.50;18.25;;;;;5.74;61.15;101417.16;5059371;28;46055;-45
2021/11/30 04:01:10;;;;;;;;;18.25;17.75;;;;;5.75;61.33;101409.34;5059125;28;45226;-45
2021/11/30 04:03:35;;;;;;;;;14.50;14.00;;;;;5.79;61.03;101413.75;5058419;28;45407;-43
2021/11/30 04:06:02;;;;;;;;;20.25;18.75;;;;;5.79;61.51;101405.06;5059047;28;45350;-48
2021/11/30 04:08:28;;;;;;;;;21.25;18.00;;;;;5.81;61.19;101412.03;5057742;28;48195;-46
2021/11/30 04:10:53;;;;;;;;;19.25;15.00;;;;;5.84;61.31;101406.00;5058814;28;45387;-44
2021/11/30 04:13:19;;;;;;;;;15.50;15.50;;;;;5.85;61.33;101415.59;5059344;28;46022;-44
2021/11/30 04:15:44;;;;;;;;;17.25;16.00;;;;;5.88;61.29;101393.88;5059084;28;45374;-45
2021/11/30 04:18:10;;;;;;;;;20.50;18.25;;;;;5.91;61.25;101396.53;5058997;28;45457;-43
2021/11/30 04:20:35;;;;;;;;;19.50;16.25;;;;;5.90;61.31;101410.41;5058984;28;45283;-44
2021/11/30 04:23:00;;;;;;;;;21.25;18.75;;;;;5.90;61.44;101410.41;5059013;28;45300;-44
2021/11/30 04:25:26;;;;;;;;;20.00;18.00;;;;;5.92;61.55;101400.91;5048897;28;45293;-47
2021/11/30 04:27:51;;;;;;;;;21.00;17.00;;;;;5.88;61.46;101397.34;5062120;28;45160;-46
2021/11/30 04:30:17;;;;;;;;;15.00;12.50;;;;;5.86;61.61;101389.53;5078292;28;45283;-42
2021/11/30 04:32:43;;;;;;;;;14.50;14.25;;;;;5.87;61.44;101398.22;5071948;28;45270;-43
2021/11/30 04:35:09;;;;;;;;;17.00;16.00;;;;;5.87;61.74;101390.38;5062307;28;45232;-44
2021/11/30 04:37:35;;;;;;;;;20.75;15.75;;;;;5.92;61.32;101412.19;5062171;28;45340;-47
2021/11/30 04:40:00;;;;;;;;;21.75;16.00;;;;;5.90;61.45;101393.06;5062003;28;45501;-46
2021/11/30 04:42:27;;;;;;;;;16.00;15.25;;;;;5.90;61.73;101386.94;5071661;28;45684;-43
2021/11/30 04:45:03;;;;;;;;;19.25;18.50;;;;;5.92;61.47;101383.50;5058861;28;45391;-45
2021/11/30 04:47:32;;;;;;;;;16.00;15.50;;;;;5.93;61.74;101384.41;5073274;28;46383;-46
2021/11/30 04:50:00;;;;;;;;;17.75;16.25;;;;;5.92;61.60;101372.19;5063489;27;45176;-46
2021/11/30 04:52:25;;;;;;;;;13.25;12.25;;;;;5.93;61.42;101374.81;5062303;28;45588;-44
2021/11/30 04:54:51;;;;;;;;;16.00;13.50;;;;;5.90;61.66;101368.69;5060187;28;45459;-44
2021/11/30 04:57:17;;;;;;;;;18.00;12.50;;;;;5.88;61.93;101363.44;5061911;28;47185;-45
2021/11/30 04:59:42;;;;;;;;;16.50;16.50;;;;;5.89;61.63;101367.81;5061774;28;45380;-44
2021/11/30 05:02:08;;;;;;;;;19.75;17.00;;;;;5.86;61.64;101360.81;5061869;28;45461;-45
2021/11/30 05:04:35;;;;;;;;;14.25;14.00;;;;;5.85;61.86;101358.19;5061651;28;45442;-44
2021/11/30 05:07:00;;;;;;;;;10.75;10.00;;;;;5.86;61.65;101368.66;5061837;28;46010;-44
2021/11/30 05:09:26;;;;;;;;;17.50;13.25;;;;;5.86;61.94;101372.97;5061230;28;45286;-46
2021/11/30 05:11:51;;;;;;;;;17.00;15.00;;;;;5.87;62.11;101379.94;5061943;28;45319;-44
2021/11/30 05:14:16;;;;;;;;;16.75;14.00;;;;;5.83;62.12;101383.38;5061482;28;45208;-46
2021/11/30 05:16:42;;;;;;;;;15.25;13.25;;;;;5.88;61.84;101392.16;5061868;28;46459;-44
2021/11/30 05:19:07;;;;;;;;;16.25;15.50;;;;;5.88;61.83;101380.84;5061376;28;45332;-46
2021/11/30 05:21:33;;;;;;;;;22.50;17.00;;;;;5.90;61.99;101385.22;5060541;28;45248;-45
2021/11/30 05:24:02;;;;;;;;;18.25;16.00;;;;;5.88;62.01;101378.22;5060159;28;45466;-44
2021/11/30 05:26:28;;;;;;;;;14.25;13.50;;;;;5.88;62.31;101379.09;5052704;28;47188;-44
2021/11/30 05:28:53;;;;;;;;;15.00;14.50;;;;;5.88;62.29;101375.63;5061163;28;45274;-46
2021/11/30 05:31:19;;;;;;;;;17.75;14.25;;;;;5.89;62.37;101369.53;5061815;28;45228;-43
2021/11/30 05:33:45;;;;;;;;;15.00;15.00;;;;;5.86;62.13;101375.56;5061202;28;45340;-44
2021/11/30 05:36:10;;;;;;;;;17.50;13.25;;;;;5.91;62.19;101386.09;5060027;28;45465;-43
2021/11/30 05:38:37;;;;;;;;;18.00;14.50;;;;;5.89;62.34;101369.53;5060911;28;45292;-44
2021/11/30 05:41:02;;;;;;;;;16.75;13.50;;;;;5.89;62.38;101359.09;5061353;28;45512;-44
2021/11/30 05:43:28;;;;;;;;;15.00;14.50;;;;;5.88;62.19;101366.06;5059638;28;45592;-43
2021/11/30 05:45:53;;;;;;;;;14.25;10.50;;;;;5.91;62.49;101365.22;5059714;28;46979;-44
2021/11/30 05:48:18;;;;;;;;;15.75;15.75;;;;;5.85;62.28;101366.03;5061119;28;45356;-47
2021/11/30 05:50:44;;;;;;;;;18.00;13.75;;;;;5.84;62.37;101370.34;5061310;28;45212;-45
2021/11/30 05:53:09;;;;;;;;;14.00;12.25;;;;;5.83;62.53;101365.97;5060718;28;45228;-44
2021/11/30 05:55:35;;;;;;;;;20.00;16.50;;;;;5.84;62.65;101406.88;5056214;28;46877;-46
2021/11/30 05:58:02;;;;;;;;;20.25;16.75;;;;;5.82;62.65;101361.63;5058809;28;45500;-45
2021/11/30 06:00:30;;;;;;;;;20.00;15.75;;;;;5.80;62.67;101376.38;5061111;28;45393;-44
2021/11/30 06:03:09;;;;;;;;;15.50;13.25;;;;;5.80;62.59;101360.72;5060698;28;45457;-42
2021/11/30 06:05:35;;;;;;;;;18.00;14.75;;;;;5.81;62.72;101372.91;5060793;28;46335;-44
2021/11/30 06:08:03;;;;;;;;;19.00;15.50;;;;;5.83;62.64;101368.59;5060705;28;45444;-44
2021/11/30 06:10:28;;;;;;;;;17.00;13.00;;;;;5.79;62.74;101358.97;5061311;28;45373;-45
2021/11/30 06:12:54;;;;;;;;;14.25;13.25;;;;;5.76;62.73;101356.31;5073668;28;45423;-44
2021/11/30 06:15:20;;;;;;;;;15.50;15.00;;;;;5.80;62.91;101365.06;5060734;28;45295;-45
2021/11/30 06:17:46;;;;;;;;;14.75;13.00;;;;;5.79;62.75;101360.72;5060553;28;45399;-51
2021/11/30 06:20:11;;;;;;;;;10.50;9.75;;;;;5.79;62.60;101351.13;5059528;28;45232;-50
2021/11/30 06:22:38;;;;;;;;;19.50;19.50;;;;;5.77;62.79;101358.06;5060440;28;45438;-44
2021/11/30 06:25:06;;;;;;;;;12.75;11.50;;;;;5.74;62.90;101371.06;5050485;28;46352;-49
2021/11/30 06:27:32;;;;;;;;;15.75;15.00;;;;;5.73;63.14;101382.34;5047149;28;45473;-54
2021/11/30 06:29:57;;;;;;;;;14.75;13.50;;;;;5.74;63.07;101365.84;5055039;28;45508;-45
2021/11/30 06:32:23;;;;;;;;;14.75;14.50;;;;;5.74;62.88;101385.84;5059410;28;45323;-45
2021/11/30 06:34:49;;;;;;;;;19.75;14.75;;;;;5.71;62.99;101384.06;5060236;28;46347;-45
2021/11/30 06:37:14;;;;;;;;;17.75;14.50;;;;;5.71;63.10;101371.03;5042384;28;45437;-47
2021/11/30 06:39:40;;;;;;;;;11.25;10.50;;;;;5.60;63.27;101356.94;5060003;28;45693;-46
2021/11/30 06:42:05;;;;;;;;;18.25;13.25;;;;;5.67;63.13;101382.25;5060041;28;45597;-46
2021/11/30 06:44:35;;;;;;;;;11.50;11.50;;;;;5.69;63.21;101362.28;5058177;28;46105;-45
2021/11/30 06:47:02;;;;;;;;;13.00;12.50;;;;;5.73;63.28;101363.22;5059040;28;45303;-46
2021/11/30 06:49:27;;;;;;;;;16.25;13.00;;;;;5.73;63.41;101376.25;5038884;28;45498;-46
2021/11/30 06:51:52;;;;;;;;;21.00;17.25;;;;;5.71;63.08;101358.00;5060289;28;45677;-45
2021/11/30 06:54:18;;;;;;;;;15.00;14.00;;;;;5.74;63.28;101357.16;5056928;28;45448;-49
2021/11/30 06:56:43;;;;;;;;;16.25;15.00;;;;;5.77;63.15;101358.06;5058191;28;45344;-50
2021/11/30 06:59:09;;;;;;;;;12.25;9.75;;;;;5.76;63.35;101377.19;5055851;28;45617;-46
2021/11/30 07:01:36;;;;;;;;;13.50;12.75;;;;;5.75;63.30;101349.34;5058235;28;45317;-47
2021/11/30 07:04:03;;;;;;;;;13.50;13.00;;;;;5.79;63.33;101355.50;5058443;28;46994;-48
2021/11/30 07:11:47;;;;;;;;;13.75;13.00;;;;;5.77;63.12;101358.06;5059430;28;45686;-49
2021/11/30 07:14:12;;;;;;;;;13.75;13.25;;;;;5.77;63.34;101350.22;5058395;28;46135;-45
2021/11/30 07:16:38;;;;;;;;;13.75;12.75;;;;;5.81;63.50;101353.75;5059660;28;45215;-46
2021/11/30 07:19:05;;;;;;;;;15.25;13.00;;;;;5.79;63.33;101364.19;5059624;28;45310;-48
2021/11/30 07:21:30;;;;;;;;;20.00;18.25;;;;;5.81;63.79;101364.19;5059252;28;45419;-46
2021/11/30 07:23:56;;;;;;;;;14.50;13.75;;;;;5.81;63.38;101359.88;5059114;27;47339;-48
2021/11/30 07:26:23;;;;;;;;;17.25;15.50;;;;;5.83;63.67;101368.59;5055368;28;45400;-47
2021/11/30 07:28:48;;;;;;;;;19.00;17.50;;;;;5.85;63.70;101384.28;5059294;28;45461;-46
2021/11/30 07:31:15;;;;;;;;;19.75;19.75;;;;;5.85;63.57;101385.16;5062732;28;45319;-46
2021/11/30 07:33:43;;;;;;;;;18.75;17.00;;;;;5.89;63.37;101383.47;5059102;28;47153;-43
2021/11/30 07:36:11;;;;;;;;;17.00;14.75;;;;;5.86;63.76;101381.69;5059253;28;45416;-46
2021/11/30 07:38:38;;;;;;;;;20.75;17.50;;;;;5.88;63.68;101380.84;5059266;28;45341;-48
2021/11/30 07:41:04;;;;;;;;;14.50;14.25;;;;;5.89;63.58;101373.03;5059345;28;45438;-47
2021/11/30 07:43:30;;;;;;;;;21.00;19.00;;;;;5.88;63.21;101366.06;5059203;28;46200;-49
2021/11/30 07:45:55;;;;;;;;;18.50;16.00;;;;;5.92;64.21;101374.81;5061779;28;45317;-45
2021/11/30 07:48:21;;;;;;;;;20.25;18.00;;;;;5.95;63.76;101374.84;5058130;28;45316;-44
2021/11/30 07:50:47;;;;;;;;;23.50;20.25;;;;;5.96;63.78;101379.22;5059519;28;45316;-45
2021/11/30 07:53:13;;;;;;;;;26.00;20.50;;;;;5.99;63.37;101374.94;5061510;28;45169;-44
2021/11/30 07:55:39;;;;;;;;;18.25;15.75;;;;;5.97;64.08;101384.44;5059260;28;45266;-46
2021/11/30 07:58:05;;;;;;;;;15.75;13.75;;;;;5.98;63.71;101386.25;5059096;28;45248;-47
2021/11/30 08:00:30;;;;;;;;;22.00;16.00;;;;;6.01;64.02;101377.56;5059229;28;45315;-48
2021/11/30 08:02:56;;;;;;;;;20.75;19.50;;;;;6.05;63.86;101388.94;5060642;28;45375;-45
2021/11/30 08:05:21;;;;;;;;;18.75;15.50;;;;;6.08;63.77;101386.41;5061338;28;45317;-46
2021/11/30 08:07:47;;;;;;;;;17.50;17.50;;;;;6.07;63.75;101384.63;5059874;28;45244;-49
2021/11/30 08:10:16;;;;;;;;;24.75;24.00;;;;;6.07;63.82;101371.59;5061121;28;45672;-47
2021/11/30 08:12:42;;;;;;;;;19.50;19.50;;;;;6.11;63.89;101395.16;5062179;28;46402;-45
2021/11/30 08:15:08;;;;;;;;;21.75;19.75;;;;;6.11;63.93;101387.31;5062364;28;45228;-45
2021/11/30 08:17:34;;;;;;;;;27.25;23.25;;;;;6.13;64.09;101390.81;5062498;28;45279;-46
2021/11/30 08:20:00;;;;;;;;;20.00;18.75;;;;;6.19;63.80;101392.66;5062403;28;45396;-45
2021/11/30 08:22:26;;;;;;;;;26.00;22.00;;;;;6.21;63.61;101393.53;5061835;28;47120;-48
2021/11/30 08:24:51;;;;;;;;;19.50;18.25;;;;;6.23;63.93;101399.66;5055840;28;45322;-46
2021/11/30 08:27:19;;;;;;;;;22.25;21.25;;;;;6.25;64.27;101391.84;5062381;28;45378;-43
2021/11/30 08:29:47;;;;;;;;;25.50;21.25;;;;;6.28;64.03;101399.72;5063432;28;45396;-45
2021/11/30 08:32:12;;;;;;;;;21.75;21.00;;;;;6.29;64.14;101397.13;5062295;27;45301;-45
2021/11/30 08:34:40;;;;;;;;;27.75;22.25;;;;;6.30;63.93;101400.59;5062125;28;45386;-46
2021/11/30 08:37:08;;;;;;;;;27.25;23.50;;;;;6.32;64.13;101407.59;5061963;28;45324;-43
2021/11/30 08:39:33;;;;;;;;;24.25;20.50;;;;;6.31;63.88;101403.25;5061679;28;45436;-44
2021/11/30 08:42:02;;;;;;;;;27.25;22.00;;;;;6.37;63.83;101397.22;5062660;28;45312;-47
2021/11/30 08:44:28;;;;;;;;;29.50;25.25;;;;;6.33;64.34;101400.66;5059602;28;45430;-45
2021/11/30 08:46:54;;;;;;;;;26.25;25.00;;;;;6.32;64.07;101399.78;5061884;28;45496;-48
2021/11/30 08:49:20;;;;;;;;;30.00;26.75;;;;;6.34;63.97;101412.88;5061778;28;45422;-49
2021/11/30 08:51:45;;;;;;;;;28.25;24.00;;;;;6.38;64.19;101391.16;5060557;28;45203;-47
2021/11/30 08:54:11;;;;;;;;;29.50;27.50;;;;;6.37;63.83;101391.16;5061309;28;45298;-46
2021/11/30 08:56:37;;;;;;;;;33.75;26.25;;;;;6.41;64.31;101391.19;5061893;28;45467;-46
2021/11/30 08:59:02;;;;;;;;;33.00;28.50;;;;;6.41;64.26;101387.72;5061517;28;45439;-45
2021/11/30 09:01:28;;;;;;;;;33.00;28.50;;;;;6.40;64.22;101380.72;5061426;28;45659;-45
2021/11/30 09:03:53;;;;;;;;;28.50;26.50;;;;;6.45;64.31;101394.72;5061607;28;45374;-43
2021/11/30 09:06:19;;;;;;;;;27.75;23.00;;;;;6.43;64.23;101381.66;5061786;28;45454;-46
2021/11/30 09:08:44;;;;;;;;;40.00;31.75;;;;;6.45;64.20;101385.19;5059952;28;45361;-45
2021/11/30 09:11:10;;;;;;;;;35.00;33.50;;;;;6.46;64.23;101386.91;5061284;28;45289;-48
2021/11/30 09:13:35;;;;;;;;;31.25;27.00;;;;;6.48;64.28;101384.34;5060686;28;45244;-47
2021/11/30 09:16:01;;;;;;;;;37.75;31.00;;;;;6.46;64.46;101381.69;5061694;28;45705;-45
2021/11/30 09:18:30;;;;;;;;;39.25;32.00;;;;;6.49;64.37;101392.19;5061516;28;45344;-45
2021/11/30 09:20:58;;;;;;;;;27.25;26.25;;;;;6.48;64.68;101385.19;5061307;28;45299;-46
2021/11/30 09:23:24;;;;;;;;;40.25;33.00;;;;;6.48;64.14;101413.91;5061048;28;45351;-47
2021/11/30 09:25:53;;;;;;;;;44.50;37.50;;;;;6.52;64.43;101399.19;5054560;28;45530;-46
2021/11/30 09:28:18;;;;;;;;;28.50;26.50;;;;;6.50;64.44;101409.63;5060918;28;45584;-47
2021/11/30 09:30:44;;;;;;;;;46.50;39.75;;;;;6.50;64.35;101404.38;5064818;28;45260;-46
2021/11/30 09:33:09;;;;;;;;;46.25;38.75;;;;;6.54;64.46;101396.56;5061178;28;45244;-47
2021/11/30 09:35:34;;;;;;;;;36.25;31.50;;;;;6.53;64.26;101413.09;5062611;28;45489;-46
2021/11/30 09:38:00;;;;;;;;;29.00;27.50;;;;;6.54;64.60;101414.84;5060743;28;46141;-44
2021/11/30 09:40:29;;;;;;;;;31.25;28.25;;;;;6.50;64.71;101407.00;5060837;28;45336;-47
2021/11/30 09:42:54;;;;;;;;;36.50;30.50;;;;;6.50;64.53;101406.09;5060075;28;45395;-46
2021/11/30 09:45:22;;;;;;;;;34.75;28.75;;;;;6.57;64.60;101409.69;5060901;28;45855;-47
2021/11/30 09:47:48;;;;;;;;;35.75;29.25;;;;;6.60;64.71;101414.94;5059594;28;45234;-45
2021/11/30 09:50:18;;;;;;;;;38.00;30.00;;;;;6.60;64.95;101401.88;5059595;28;45956;-45
2021/11/30 09:52:47;;;;;;;;;30.75;29.25;;;;;6.64;64.45;101406.28;5060810;28;45355;-48
2021/11/30 09:55:16;;;;;;;;;39.00;33.25;;;;;6.66;64.68;101394.13;5060739;28;45424;-47
2021/11/30 09:57:42;;;;;;;;;36.75;28.00;;;;;6.65;64.54;101388.03;5060496;28;45428;-46
2021/11/30 10:00:11;;;;;;;;;31.25;26.50;;;;;6.66;64.74;101396.75;5059634;28;46017;-44
2021/11/30 10:02:36;;;;;;;;;29.50;23.75;;;;;6.69;64.82;101393.28;5060643;28;45746;-49
2021/11/30 10:05:03;;;;;;;;;34.00;30.75;;;;;6.66;64.87;101379.31;5059647;28;45393;-48
2021/11/30 10:07:55;;;;;;;;;37.00;29.50;;;;;6.73;64.74;101377.69;5060400;28;45392;-47
2021/11/30 10:10:37;;;;;;;;;27.75;26.75;;;;;6.79;64.74;101388.19;5057631;28;45455;-44
2021/11/30 10:13:02;;;;;;;;;25.75;23.75;;;;;6.78;64.97;101373.38;5060341;28;45465;-49
2021/11/30 10:15:29;;;;;;;;;28.00;27.25;;;;;6.80;64.85;101382.09;5063364;28;45389;-47
2021/11/30 10:18:14;;;;;;;;;30.00;26.75;;;;;6.87;64.86;101387.38;5059325;28;45558;-49
2021/11/30 10:20:39;;;;;;;;;28.00;27.25;;;;;6.87;64.95;101377.84;5060373;28;46195;-48
2021/11/30 10:23:05;;;;;;;;;32.25;30.50;;;;;6.91;64.89;101381.38;5060047;28;45361;-48
2021/11/30 10:25:36;;;;;;;;;31.50;27.25;;;;;6.93;65.02;101375.28;5052676;28;45300;-49
2021/11/30 10:28:05;;;;;;;;;26.25;23.75;;;;;6.96;64.87;101385.75;5060202;28;45497;-47
2021/11/30 10:30:34;;;;;;;;;23.75;20.75;;;;;6.98;64.89;101412.81;5063694;28;45304;-46
2021/11/30 10:33:22;;;;;;;;;27.50;23.50;;;;;6.97;65.36;101374.47;5060512;28;45192;-49
2021/11/30 10:35:56;;;;;;;;;29.50;25.25;;;;;7.00;65.23;101371.00;5058837;28;45499;-48
2021/11/30 10:38:36;;;;;;;;;32.00;29.75;;;;;7.09;65.25;101375.44;5059402;28;45426;-49
2021/11/30 10:41:24;;;;;;;;;28.00;23.25;;;;;7.14;65.27;101365.91;5059956;28;47083;-65
2021/11/30 10:43:56;;;;;;;;;27.25;24.25;;;;;7.19;65.23;101363.34;5059621;28;45153;-57
2021/11/30 10:46:29;;;;;;;;;28.25;25.00;;;;;7.24;65.42;101382.56;5059925;28;45470;-58
2021/11/30 10:48:56;;;;;;;;;27.75;23.50;;;;;7.22;65.50;101381.66;5060130;28;45481;-48
2021/11/30 10:51:21;;;;;;;;;32.50;25.25;;;;;7.30;65.41;101378.25;5059657;28;46150;-48
2021/11/30 10:53:50;;;;;;;;;27.00;24.00;;;;;7.35;65.39;101375.72;5059505;28;45291;-47
2021/11/30 10:56:18;;;;;;;;;28.75;20.75;;;;;7.36;65.25;101360.88;5060121;28;45463;-48
2021/11/30 10:58:44;;;;;;;;;25.25;23.75;;;;;7.41;65.45;101373.16;5059814;28;45347;-48
2021/11/30 11:01:19;;;;;;;;;31.00;25.50;;;;;7.46;65.29;101368.84;5057847;28;47988;-48
2021/11/30 11:04:00;;;;;;;;;26.00;23.50;;;;;7.52;65.20;101361.91;5058382;28;45281;-45
2021/11/30 11:06:29;;;;;;;;;25.75;23.50;;;;;7.55;65.21;101368.03;5059881;28;45281;-48
2021/11/30 11:09:03;;;;;;;;;26.50;23.50;;;;;7.58;65.43;101354.97;5059273;28;45581;-46
2021/11/30 11:11:35;;;;;;;;;28.25;24.75;;;;;7.61;65.24;101360.25;5058512;28;46321;-47
2021/11/30 11:14:05;;;;;;;;;26.00;20.00;;;;;7.63;65.60;101369.00;5059208;28;45471;-46
2021/11/30 11:16:34;;;;;;;;;24.75;20.25;;;;;7.64;65.27;101362.00;5059983;28;45260;-46
2021/11/30 11:19:05;;;;;;;;;25.75;24.00;;;;;7.70;65.24;101358.53;5059413;28;45533;-45
2021/11/30 11:21:36;;;;;;;;;26.75;25.00;;;;;7.71;65.29;101350.72;5059584;28;45285;-46
2021/11/30 11:24:25;;;;;;;;;27.00;24.50;;;;;7.74;65.33;101350.72;5057948;28;45366;-46
2021/11/30 11:26:55;;;;;;;;;20.50;19.50;;;;;7.75;65.34;101342.03;5056113;28;45421;-48
2021/11/30 11:29:27;;;;;;;;;26.50;23.00;;;;;7.75;65.22;101336.78;5059116;28;45446;-46